Time;durP1;ratioP1;P1;durP2;ratioP2;P2;SDS_P1;SDS_P2;PMS_P1;PMS_P2;Temp;Humidity;BMP_temperature;BMP_pressure;BME280_temperature;BME280_humidity;BME280_pressure;Samples;Min_cycle;Max_cycle;Signal;HPM_P1;HPM_P2
2024/02/01 05:31:33;;;;;;;0.10;0.10;;;11.80;87.10;;;;;;6139295;23;20623;-87
2024/02/01 05:33:59;;;;;;;0.10;0.10;;;11.80;87.30;;;;;;6130223;23;20029;-83
2024/02/01 05:36:25;;;;;;;0.10;0.10;;;11.80;87.10;;;;;;6158339;23;20012;-81
2024/02/01 05:38:53;;;;;;;0.10;0.10;;;11.80;87.10;;;;;;6160143;23;19998;-86
2024/02/01 05:41:19;;;;;;;0.10;0.10;;;11.80;86.90;;;;;;6161047;23;20061;-83
2024/02/01 05:43:45;;;;;;;0.10;0.10;;;11.80;86.90;;;;;;6160040;23;20450;-83
2024/02/01 05:46:14;;;;;;;0.10;0.10;;;11.80;86.90;;;;;;6134154;23;20001;-83
2024/02/01 05:49:36;;;;;;;;;;;;;;;;;;;;;
2024/02/01 05:51:57;;;;;;;0.10;0.10;;;11.80;86.70;;;;;;6152290;23;20005;-84
2024/02/01 05:54:22;;;;;;;0.10;0.10;;;11.90;86.70;;;;;;6134300;23;20061;-81
2024/02/01 05:56:48;;;;;;;0.10;0.10;;;11.80;86.60;;;;;;6160023;23;20002;-81
2024/02/01 05:59:16;;;;;;;0.10;0.10;;;11.90;86.60;;;;;;6159060;23;20005;-81
2024/02/01 06:01:45;;;;;;;0.10;0.10;;;11.90;86.60;;;;;;6159671;23;20149;-82
2024/02/01 06:04:12;;;;;;;0.10;0.10;;;11.90;86.50;;;;;;6160049;23;20002;-80
2024/02/01 06:06:39;;;;;;;0.10;0.10;;;11.90;86.50;;;;;;6159992;23;20086;-87
2024/02/01 06:09:10;;;;;;;0.10;0.10;;;11.90;86.50;;;;;;6134495;23;20119;-82
2024/02/01 06:11:37;;;;;;;0.10;0.10;;;11.90;86.50;;;;;;6155622;23;20394;-82
2024/02/01 06:14:03;;;;;;;0.10;0.10;;;11.90;86.40;;;;;;6158159;23;20012;-85
2024/02/01 06:16:29;;;;;;;0.10;0.10;;;11.90;86.40;;;;;;6158562;23;20013;-82
2024/02/01 06:18:55;;;;;;;0.10;0.10;;;11.90;86.40;;;;;;6159960;23;20025;-83
2024/02/01 06:21:20;;;;;;;0.10;0.10;;;11.90;86.30;;;;;;6159927;23;20434;-84
2024/02/01 06:23:46;;;;;;;0.10;0.10;;;11.90;86.30;;;;;;6160100;23;20049;-84
2024/02/01 06:26:27;;;;;;;0.10;0.10;;;11.90;86.30;;;;;;6159989;23;20056;-83
2024/02/01 06:28:59;;;;;;;0.10;0.10;;;11.90;86.30;;;;;;6159842;23;20431;-82
2024/02/01 06:31:26;;;;;;;0.10;0.10;;;11.90;86.30;;;;;;6159468;23;20072;-84
2024/02/01 06:33:52;;;;;;;0.10;0.10;;;11.90;86.30;;;;;;6159306;23;20695;-82
2024/02/01 06:36:19;;;;;;;0.10;0.10;;;11.90;86.40;;;;;;6156434;23;20005;-84
2024/02/01 06:41:28;;;;;;;0.10;0.10;;;11.90;86.40;;;;;;6159266;23;20016;-83
2024/02/01 06:55:06;;;;;;;0.10;0.10;;;11.90;86.50;;;;;;6159970;23;20017;-81
2024/02/01 06:57:47;;;;;;;0.10;0.10;;;11.90;86.50;;;;;;6160675;23;20441;-81
2024/02/01 07:03:02;;;;;;;0.10;0.10;;;11.90;86.60;;;;;;6160380;23;20016;-80
2024/02/01 07:16:21;;;;;;;0.10;0.10;;;11.90;86.50;;;;;;6160315;23;20009;-82
2024/02/01 07:19:09;;;;;;;0.03;0.03;;;11.90;86.50;;;;;;6158732;23;20096;-82
2024/02/01 07:22:00;;;;;;;0.10;0.10;;;11.90;86.50;;;;;;6160242;23;20005;-81
2024/02/01 07:59:58;;;;;;;0.00;0.00;;;12.10;86.30;;;;;;6159770;23;20016;-81
2024/02/01 08:07:56;;;;;;;0.00;0.00;;;12.20;86.40;;;;;;6159829;23;20056;-81
2024/02/01 08:10:22;;;;;;;0.28;0.10;;;12.20;86.40;;;;;;6157850;23;20009;-81
2024/02/01 08:12:48;;;;;;;0.10;0.10;;;12.20;86.40;;;;;;6159204;23;20001;-81
2024/02/01 08:15:18;;;;;;;0.10;0.10;;;12.20;86.30;;;;;;6158401;23;20005;-81
2024/02/01 08:17:48;;;;;;;0.10;0.10;;;12.20;86.30;;;;;;6157330;23;20404;-81
2024/02/01 08:20:15;;;;;;;0.10;0.10;;;12.30;86.40;;;;;;6158392;23;20458;-81
2024/02/01 08:22:41;;;;;;;0.10;0.10;;;12.30;86.30;;;;;;6160058;23;20494;-81
2024/02/01 08:25:16;;;;;;;0.00;0.00;;;12.30;86.30;;;;;;6159774;23;20919;-81
2024/02/01 08:27:49;;;;;;;0.10;0.10;;;12.30;86.30;;;;;;6157586;23;20029;-81
2024/02/01 08:30:19;;;;;;;0.10;0.10;;;12.30;86.40;;;;;;6158560;23;20434;-81
2024/02/01 08:32:46;;;;;;;0.10;0.10;;;12.20;86.40;;;;;;6159258;23;20013;-80
2024/02/01 08:35:12;;;;;;;0.10;0.10;;;12.30;86.30;;;;;;6157494;23;20013;-81
2024/02/01 08:37:41;;;;;;;0.10;0.10;;;12.30;86.30;;;;;;6157638;23;20081;-81
2024/02/01 08:40:17;;;;;;;0.10;0.10;;;12.30;86.30;;;;;;6157255;23;20346;-81
2024/02/01 08:42:48;;;;;;;0.10;0.10;;;12.30;86.20;;;;;;6157435;23;20016;-81
2024/02/01 08:45:15;;;;;;;0.10;0.10;;;12.40;86.10;;;;;;6159377;23;20025;-81
2024/02/01 08:47:42;;;;;;;0.10;0.10;;;12.40;86.10;;;;;;6157687;23;20524;-81
2024/02/01 08:50:09;;;;;;;0.10;0.10;;;12.40;86.10;;;;;;6158691;23;19998;-82
2024/02/01 08:52:45;;;;;;;0.10;0.10;;;12.50;86.10;;;;;;6157604;23;20411;-81
2024/02/01 08:55:14;;;;;;;0.10;0.10;;;12.50;86.10;;;;;;6158972;23;20005;-81
2024/02/01 08:57:41;;;;;;;0.10;0.10;;;12.40;86.00;;;;;;6158912;23;20006;-81
2024/02/01 09:00:21;;;;;;;0.10;0.10;;;12.50;86.10;;;;;;6182346;23;20133;-81
2024/02/01 09:03:06;;;;;;;0.10;0.10;;;12.50;86.10;;;;;;6159074;23;20006;-81
2024/02/01 09:05:43;;;;;;;0.10;0.10;;;12.50;86.10;;;;;;6159965;23;20013;-81
2024/02/01 09:08:14;;;;;;;0.17;0.17;;;12.50;86.20;;;;;;6158567;23;19997;-81
2024/02/01 09:10:50;;;;;;;0.10;0.10;;;12.60;86.20;;;;;;6157896;23;20077;-81
2024/02/01 09:13:21;;;;;;;0.10;0.10;;;12.60;86.20;;;;;;6160380;23;20002;-81
2024/02/01 09:15:47;;;;;;;0.10;0.10;;;12.70;86.20;;;;;;6160831;23;20001;-81
2024/02/01 09:18:13;;;;;;;0.10;0.10;;;12.80;86.20;;;;;;6161363;23;19997;-81
2024/02/01 09:20:39;;;;;;;0.10;0.10;;;12.80;86.20;;;;;;6161838;23;20004;-81
2024/02/01 09:23:06;;;;;;;0.10;0.10;;;12.80;86.20;;;;;;6159808;23;20088;-81
2024/02/01 09:25:31;;;;;;;0.10;0.10;;;12.90;86.10;;;;;;6159536;23;20385;-81
2024/02/01 09:27:58;;;;;;;0.10;0.10;;;13.00;86.00;;;;;;6161188;23;20076;-81
2024/02/01 09:30:26;;;;;;;0.10;0.10;;;12.90;85.90;;;;;;6158549;23;20005;-80
2024/02/01 09:32:56;;;;;;;0.10;0.10;;;13.00;85.90;;;;;;6159284;23;20064;-81
2024/02/01 09:35:23;;;;;;;0.10;0.10;;;13.00;85.80;;;;;;6160644;23;20012;-81
2024/02/01 09:37:53;;;;;;;0.00;0.00;;;13.00;85.80;;;;;;6159165;23;20009;-81
2024/02/01 09:40:22;;;;;;;0.10;0.10;;;13.10;85.90;;;;;;6159570;23;20006;-81
2024/02/01 09:42:50;;;;;;;0.10;0.10;;;13.00;85.80;;;;;;6160055;23;20013;-81
2024/02/01 09:45:18;;;;;;;0.10;0.10;;;13.00;85.80;;;;;;6160762;23;20001;-81
2024/02/01 09:47:46;;;;;;;0.10;0.10;;;13.00;85.90;;;;;;6160596;23;20005;-81
2024/02/01 09:50:16;;;;;;;0.10;0.10;;;13.10;85.90;;;;;;6158810;23;20085;-81
2024/02/01 09:52:46;;;;;;;0.10;0.10;;;13.10;85.90;;;;;;6159043;23;20005;-81
2024/02/01 09:55:16;;;;;;;0.00;0.00;;;13.10;85.90;;;;;;6160245;23;20438;-81
2024/02/01 09:57:48;;;;;;;0.10;0.10;;;13.10;86.00;;;;;;6158357;23;20006;-81
2024/02/01 10:00:18;;;;;;;0.10;0.10;;;13.10;86.00;;;;;;6158772;23;20520;-81
2024/02/01 10:02:48;;;;;;;0.10;0.10;;;13.00;86.00;;;;;;6159018;23;20016;-80
2024/02/01 10:05:14;;;;;;;0.10;0.10;;;13.00;86.20;;;;;;6160747;23;20013;-80
2024/02/01 10:07:40;;;;;;;0.10;0.10;;;13.00;86.30;;;;;;6158610;23;20461;-81
2024/02/01 10:10:07;;;;;;;0.10;0.10;;;13.00;86.30;;;;;;6161037;23;20342;-81
2024/02/01 10:12:34;;;;;;;0.10;0.10;;;13.10;86.40;;;;;;6158969;23;20103;-81
2024/02/01 10:15:10;;;;;;;0.10;0.10;;;13.10;86.40;;;;;;6158591;23;20009;-81
2024/02/01 10:17:45;;;;;;;0.10;0.10;;;13.10;86.40;;;;;;6158920;23;20334;-81
2024/02/01 10:20:34;;;;;;;0.10;0.10;;;13.10;86.30;;;;;;6160449;23;20418;-81
2024/02/01 10:23:04;;;;;;;0.10;0.10;;;13.20;86.20;;;;;;6160567;23;20002;-80
2024/02/01 10:25:36;;;;;;;0.10;0.10;;;13.30;86.10;;;;;;6158541;23;20001;-81
2024/02/01 10:28:09;;;;;;;0.10;0.10;;;13.30;85.80;;;;;;6159490;23;20445;-80
2024/02/01 10:30:45;;;;;;;0.10;0.10;;;13.30;86.00;;;;;;6160141;23;20005;-80
2024/02/01 10:33:13;;;;;;;0.10;0.10;;;13.30;85.80;;;;;;6160011;23;20001;-80
2024/02/01 10:35:40;;;;;;;0.10;0.10;;;13.30;86.00;;;;;;6158630;23;20009;-80
2024/02/01 10:38:13;;;;;;;0.10;0.10;;;13.30;86.10;;;;;;6159832;23;20064;-81
2024/02/01 10:40:51;;;;;;;0.10;0.10;;;13.40;86.00;;;;;;6158851;23;20453;-81
2024/02/01 10:43:19;;;;;;;0.10;0.10;;;13.40;86.10;;;;;;6158906;23;20029;-81
2024/02/01 10:46:06;;;;;;;0.10;0.10;;;13.40;85.90;;;;;;6159642;23;20385;-80
2024/02/01 10:48:59;;;;;;;0.10;0.10;;;13.40;86.00;;;;;;6158483;23;20393;-80
2024/02/01 10:51:25;;;;;;;0.10;0.10;;;13.40;85.90;;;;;;6159867;23;20544;-80
2024/02/01 10:53:51;;;;;;;0.10;0.10;;;13.50;86.10;;;;;;6158809;23;20017;-81
2024/02/01 10:56:18;;;;;;;0.10;0.10;;;13.50;86.10;;;;;;6159916;23;20008;-80
2024/02/01 10:58:51;;;;;;;0.10;0.10;;;13.60;85.90;;;;;;6159891;23;20002;-81
2024/02/01 11:01:24;;;;;;;0.10;0.10;;;13.60;85.90;;;;;;6159722;23;20025;-80
2024/02/01 11:03:50;;;;;;;;;;;13.60;85.90;;;;;;6160344;23;20422;-80
2024/02/01 11:06:17;;;;;;;0.10;0.10;;;13.70;86.00;;;;;;6159518;23;19900;-81
2024/02/01 11:08:51;;;;;;;0.10;0.10;;;13.70;85.90;;;;;;6158758;23;20008;-81
2024/02/01 11:11:17;;;;;;;0.10;0.10;;;13.70;85.80;;;;;;6158764;23;20005;-81
2024/02/01 11:14:06;;;;;;;0.10;0.10;;;13.70;85.90;;;;;;6158855;23;20006;-81
2024/02/01 11:16:46;;;;;;;0.10;0.10;;;13.70;85.80;;;;;;6158207;23;20009;-81
2024/02/01 11:19:17;;;;;;;0.10;0.10;;;13.80;85.80;;;;;;6157647;23;20016;-80
2024/02/01 11:21:48;;;;;;;0.10;0.10;;;13.80;85.70;;;;;;6159454;23;20006;-80
2024/02/01 11:24:20;;;;;;;0.00;0.00;;;14.00;85.70;;;;;;6158873;23;20008;-80
2024/02/01 11:26:54;;;;;;;0.10;0.10;;;14.00;85.60;;;;;;6159950;23;20029;-81
2024/02/01 11:29:24;;;;;;;0.10;0.10;;;14.00;85.30;;;;;;6158876;23;20002;-80
2024/02/01 11:31:55;;;;;;;0.10;0.10;;;14.00;85.10;;;;;;6159502;23;20026;-80
2024/02/01 11:34:22;;;;;;;0.10;0.10;;;14.00;85.00;;;;;;6159392;23;20006;-79
2024/02/01 11:36:48;;;;;;;0.10;0.10;;;14.10;85.20;;;;;;6157563;23;20013;-80
2024/02/01 11:39:15;;;;;;;0.10;0.10;;;14.20;85.20;;;;;;6158454;23;20418;-81
2024/02/01 11:41:47;;;;;;;0.10;0.10;;;14.10;85.00;;;;;;6159843;23;20006;-82
2024/02/01 11:44:23;;;;;;;0.10;0.10;;;14.10;85.00;;;;;;6157866;23;20001;-80
2024/02/01 11:46:52;;;;;;;0.10;0.10;;;14.10;85.10;;;;;;6159643;23;20008;-81
2024/02/01 11:49:20;;;;;;;0.10;0.10;;;14.10;85.10;;;;;;6157595;23;20587;-82
2024/02/01 11:52:15;;;;;;;0.10;0.10;;;14.10;85.20;;;;;;6158425;23;20016;-80
2024/02/01 11:54:51;;;;;;;0.10;0.10;;;14.20;85.10;;;;;;6182816;23;20009;-77
2024/02/01 11:57:22;;;;;;;0.10;0.10;;;14.20;84.90;;;;;;6159200;23;20002;-82
2024/02/01 11:59:48;;;;;;;0.10;0.10;;;14.20;84.80;;;;;;6157755;23;20037;-83
2024/02/01 12:02:16;;;;;;;0.10;0.10;;;14.10;84.70;;;;;;6159433;23;20001;-84
2024/02/01 12:04:45;;;;;;;0.10;0.10;;;14.20;84.90;;;;;;6159131;23;19998;-84
2024/02/01 12:07:14;;;;;;;0.10;0.10;;;14.20;85.00;;;;;;6159835;23;20017;-84
2024/02/01 12:09:41;;;;;;;0.10;0.10;;;14.20;84.80;;;;;;6157500;23;20017;-84
2024/02/01 12:12:07;;;;;;;0.10;0.10;;;14.20;84.80;;;;;;6160499;23;20006;-84
2024/02/01 12:14:34;;;;;;;0.10;0.10;;;14.20;85.00;;;;;;6160910;23;20065;-84
2024/02/01 12:17:03;;;;;;;0.00;0.00;;;14.20;85.00;;;;;;6159704;23;20029;-86
2024/02/01 12:19:37;;;;;;;0.10;0.10;;;14.30;84.70;;;;;;6158302;23;20009;-77
2024/02/01 12:22:07;;;;;;;0.10;0.10;;;14.30;84.70;;;;;;6159201;23;20009;-79
2024/02/01 12:24:36;;;;;;;0.10;0.10;;;14.30;84.40;;;;;;6159331;23;20002;-79
2024/02/01 12:27:10;;;;;;;0.10;0.10;;;14.40;84.30;;;;;;6157092;23;20005;-89
2024/02/01 12:29:39;;;;;;;0.10;0.10;;;14.50;84.20;;;;;;6159286;23;20005;-85
2024/02/01 12:32:19;;;;;;;0.10;0.10;;;14.50;83.80;;;;;;6160574;23;20014;-82
2024/02/01 12:34:54;;;;;;;0.10;0.10;;;14.60;83.70;;;;;;6159827;23;20362;-89
2024/02/01 12:37:20;;;;;;;0.10;0.10;;;14.70;83.80;;;;;;6158567;23;20064;-84
2024/02/01 12:39:46;;;;;;;0.10;0.10;;;14.70;83.50;;;;;;6157035;23;20350;-85
2024/02/01 12:42:15;;;;;;;0.10;0.10;;;14.70;83.40;;;;;;6159062;23;20001;-87
2024/02/01 12:44:41;;;;;;;0.00;0.00;;;14.50;83.20;;;;;;6157478;23;20052;-85
2024/02/01 12:47:07;;;;;;;0.10;0.10;;;14.50;83.60;;;;;;6159108;23;20001;-85
2024/02/01 12:49:33;;;;;;;0.10;0.10;;;14.40;83.50;;;;;;6161181;23;20001;-82
2024/02/01 12:52:04;;;;;;;0.10;0.10;;;14.30;83.60;;;;;;6159763;23;20037;-86
2024/02/01 12:54:41;;;;;;;0.10;0.10;;;14.40;83.60;;;;;;6159962;23;20006;-85
2024/02/01 12:57:08;;;;;;;0.10;0.10;;;14.50;83.20;;;;;;6159464;23;20028;-88
2024/02/01 12:59:36;;;;;;;0.10;0.10;;;14.50;82.60;;;;;;6159224;23;20446;-87
2024/02/01 13:02:05;;;;;;;0.05;0.05;;;14.50;82.70;;;;;;6159803;23;20372;-85
2024/02/01 13:04:31;;;;;;;0.10;0.10;;;14.60;82.80;;;;;;6160820;23;20048;-87
2024/02/01 13:06:57;;;;;;;0.10;0.10;;;14.70;82.40;;;;;;6160682;23;20002;-84
2024/02/01 13:09:28;;;;;;;0.10;0.10;;;14.80;82.10;;;;;;6159816;23;20048;-82
2024/02/01 13:12:01;;;;;;;0.10;0.10;;;14.80;82.00;;;;;;6159585;23;20009;-79
2024/02/01 13:14:30;;;;;;;0.10;0.10;;;14.80;81.50;;;;;;6159092;23;20315;-79
2024/02/01 13:16:56;;;;;;;0.00;0.00;;;14.80;81.70;;;;;;6160889;23;20005;-79
2024/02/01 13:19:23;;;;;;;0.10;0.10;;;14.90;81.20;;;;;;6159145;23;20020;-80
2024/02/01 13:21:50;;;;;;;0.10;0.10;;;14.90;81.30;;;;;;6159187;23;20320;-79
2024/02/01 13:24:16;;;;;;;0.10;0.10;;;15.20;81.20;;;;;;6158874;23;20001;-79
2024/02/01 13:26:41;;;;;;;0.10;0.10;;;15.30;80.60;;;;;;6161094;23;20434;-79
2024/02/01 13:29:13;;;;;;;0.00;0.00;;;15.50;80.40;;;;;;6159448;23;20385;-79
2024/02/01 13:31:42;;;;;;;0.10;0.10;;;15.50;79.90;;;;;;6158615;23;20017;-79
2024/02/01 13:34:08;;;;;;;0.10;0.10;;;15.60;79.40;;;;;;6160865;23;20005;-79
2024/02/01 13:36:34;;;;;;;0.10;0.10;;;15.60;79.10;;;;;;6160830;23;20009;-79
2024/02/01 13:38:59;;;;;;;0.10;0.10;;;15.60;79.20;;;;;;6160514;23;20005;-79
2024/02/01 13:41:25;;;;;;;0.10;0.10;;;15.50;79.40;;;;;;6161032;23;20017;-79
2024/02/01 13:43:51;;;;;;;0.10;0.10;;;15.40;79.10;;;;;;6160584;23;20427;-79
2024/02/01 13:46:16;;;;;;;0.10;0.10;;;15.40;79.50;;;;;;6160202;23;19998;-79
2024/02/01 13:48:42;;;;;;;0.10;0.10;;;15.40;79.70;;;;;;6160528;23;20097;-79
2024/02/01 13:51:08;;;;;;;0.10;0.10;;;15.50;79.10;;;;;;6159050;23;20006;-79
2024/02/01 13:53:35;;;;;;;0.10;0.10;;;15.50;79.50;;;;;;6160495;23;20006;-79
2024/02/01 13:56:03;;;;;;;0.10;0.10;;;15.60;79.30;;;;;;6160583;23;20045;-81
2024/02/01 13:58:30;;;;;;;0.10;0.10;;;15.70;79.10;;;;;;6159387;23;20431;-90
2024/02/01 14:00:56;;;;;;;0.03;0.03;;;15.80;78.80;;;;;;6159771;23;20001;-90
2024/02/01 14:03:22;;;;;;;0.10;0.10;;;15.80;78.40;;;;;;6158253;23;20522;-82
2024/02/01 14:05:47;;;;;;;0.10;0.10;;;15.80;78.50;;;;;;6160427;23;20008;-87
2024/02/01 14:08:13;;;;;;;0.10;0.10;;;15.80;78.70;;;;;;6160905;23;20076;-87
2024/02/01 14:10:38;;;;;;;0.10;0.10;;;15.90;79.00;;;;;;6159018;23;20002;-87
2024/02/01 14:13:06;;;;;;;0.10;0.10;;;16.20;78.60;;;;;;6159828;23;20140;-87
2024/02/01 14:15:32;;;;;;;0.10;0.10;;;16.30;78.00;;;;;;6160458;23;20006;-87
2024/02/01 14:17:58;;;;;;;0.08;0.08;;;16.30;77.10;;;;;;6158925;23;20010;-88
2024/02/01 14:20:23;;;;;;;0.00;0.00;;;16.10;77.80;;;;;;6159026;23;20009;-86
2024/02/01 14:22:49;;;;;;;0.10;0.10;;;16.00;78.10;;;;;;6159193;23;20005;-87
2024/02/01 14:25:14;;;;;;;0.10;0.10;;;16.00;78.20;;;;;;6160825;23;20009;-86
2024/02/01 14:27:40;;;;;;;0.10;0.10;;;15.80;78.50;;;;;;6160358;23;19990;-87
2024/02/01 14:30:10;;;;;;;0.00;0.00;;;15.70;78.80;;;;;;6160576;23;20388;-87
2024/02/01 14:32:38;;;;;;;0.10;0.10;;;15.60;79.00;;;;;;6158712;23;20026;-89
2024/02/01 14:35:04;;;;;;;0.10;0.10;;;15.40;79.20;;;;;;6160703;23;20031;-88
2024/02/01 14:37:29;;;;;;;0.10;0.10;;;15.40;79.30;;;;;;6161338;23;20001;-87
2024/02/01 14:39:56;;;;;;;0.10;0.10;;;15.50;79.60;;;;;;6160658;23;20012;-86
2024/02/01 14:42:21;;;;;;;0.05;0.05;;;15.50;79.20;;;;;;6161102;23;20029;-87
2024/02/01 14:44:47;;;;;;;0.00;0.00;;;15.30;79.20;;;;;;6160064;23;20367;-89
2024/02/01 14:47:13;;;;;;;0.10;0.10;;;15.40;79.50;;;;;;6159973;23;19997;-89
2024/02/01 14:49:39;;;;;;;0.10;0.10;;;15.30;78.50;;;;;;6159955;23;20028;-87
2024/02/01 14:52:05;;;;;;;0.10;0.10;;;15.20;78.20;;;;;;6160222;23;20009;-87
2024/02/01 14:54:30;;;;;;;0.10;0.10;;;15.20;78.30;;;;;;6157599;23;20019;-88
2024/02/01 14:56:56;;;;;;;0.10;0.10;;;15.10;78.20;;;;;;6160453;23;20001;-87
2024/02/01 14:59:22;;;;;;;0.10;0.10;;;15.20;78.50;;;;;;6158297;23;20005;-87
2024/02/01 15:01:47;;;;;;;0.10;0.10;;;15.20;78.40;;;;;;6158012;23;20032;-89
2024/02/01 15:04:13;;;;;;;0.00;0.00;;;15.20;78.40;;;;;;6160089;23;20081;-89
2024/02/01 15:06:39;;;;;;;0.10;0.10;;;15.20;78.70;;;;;;6158317;23;20083;-88
2024/02/01 15:09:06;;;;;;;0.10;0.10;;;15.10;79.20;;;;;;6159932;23;20355;-88
2024/02/01 15:11:32;;;;;;;0.10;0.10;;;15.00;79.40;;;;;;6158610;23;20088;-88
2024/02/01 15:13:59;;;;;;;0.10;0.10;;;15.10;79.50;;;;;;6159706;23;20009;-88
2024/02/01 15:16:26;;;;;;;0.10;0.10;;;15.20;79.30;;;;;;6160003;23;20006;-89
2024/02/01 15:18:52;;;;;;;0.10;0.10;;;15.10;79.50;;;;;;6159925;23;20002;-88
2024/02/01 15:21:18;;;;;;;0.10;0.10;;;15.00;79.30;;;;;;6157890;23;20069;-88
2024/02/01 15:23:45;;;;;;;0.10;0.10;;;14.80;79.90;;;;;;6159208;23;20001;-87
2024/02/01 15:26:13;;;;;;;0.00;0.00;;;14.70;80.10;;;;;;6158482;23;20005;-88
2024/02/01 15:28:46;;;;;;;0.10;0.10;;;14.70;80.40;;;;;;6159905;23;20013;-88
2024/02/01 15:31:15;;;;;;;0.10;0.10;;;14.70;80.30;;;;;;6158647;23;20097;-87
2024/02/01 15:33:44;;;;;;;0.05;0.05;;;14.70;80.40;;;;;;6158974;23;20446;-87
2024/02/01 15:36:09;;;;;;;0.10;0.10;;;14.50;80.80;;;;;;6160129;23;20006;-86
2024/02/01 15:38:35;;;;;;;0.10;0.10;;;14.50;81.00;;;;;;6157398;23;20012;-90
2024/02/01 15:41:06;;;;;;;0.10;0.10;;;14.40;80.70;;;;;;6157723;23;20457;-85
2024/02/01 15:43:32;;;;;;;0.10;0.10;;;14.20;80.50;;;;;;6159115;23;20002;-84
2024/02/01 15:45:58;;;;;;;0.10;0.10;;;14.10;80.70;;;;;;6159976;23;20009;-85
2024/02/01 15:48:24;;;;;;;0.10;0.10;;;14.00;81.40;;;;;;6159420;23;20002;-87
2024/02/01 15:50:52;;;;;;;0.00;0.00;;;13.90;81.10;;;;;;6159053;23;20008;-87
2024/02/01 15:53:18;;;;;;;0.00;0.00;;;13.80;81.80;;;;;;6159298;23;20006;-86
2024/02/01 15:55:45;;;;;;;0.10;0.10;;;13.70;81.90;;;;;;6158552;23;20017;-87
2024/02/01 15:58:13;;;;;;;0.00;0.00;;;13.60;82.40;;;;;;6158187;23;20012;-87
2024/02/01 16:00:42;;;;;;;0.00;0.00;;;13.60;82.80;;;;;;6158662;23;20029;-87
2024/02/01 16:03:08;;;;;;;0.10;0.10;;;13.60;83.10;;;;;;6159185;23;20084;-86
2024/02/01 16:05:52;;;;;;;0.10;0.10;;;13.70;82.90;;;;;;6158904;23;20092;-87
2024/02/01 16:08:18;;;;;;;0.10;0.10;;;13.50;83.10;;;;;;6159138;23;20004;-88
2024/02/01 16:10:46;;;;;;;0.10;0.10;;;13.30;83.50;;;;;;6158956;23;19998;-86
2024/02/01 16:13:12;;;;;;;0.10;0.10;;;13.30;83.60;;;;;;6157463;23;20009;-86
2024/02/01 16:15:38;;;;;;;0.10;0.10;;;13.10;83.70;;;;;;6157423;23;20060;-86
2024/02/01 16:18:29;;;;;;;0.10;0.10;;;13.10;83.60;;;;;;6158757;23;20006;-87
2024/02/01 16:20:55;;;;;;;0.00;0.00;;;13.00;84.10;;;;;;6157616;23;20343;-87
2024/02/01 16:23:22;;;;;;;0.10;0.10;;;13.10;83.80;;;;;;6157543;23;20093;-87
2024/02/01 16:25:49;;;;;;;0.10;0.10;;;13.10;83.80;;;;;;6157409;23;20009;-87
2024/02/01 16:28:29;;;;;;;0.10;0.10;;;13.10;83.30;;;;;;6160007;23;19998;-87
2024/02/01 16:30:58;;;;;;;0.00;0.00;;;13.10;83.50;;;;;;6158479;23;20052;-88
2024/02/01 16:33:49;;;;;;;0.10;0.10;;;13.10;83.30;;;;;;6159113;23;20097;-87
2024/02/01 16:36:53;;;;;;;0.10;0.10;;;13.20;83.00;;;;;;6158156;23;20442;-87
2024/02/01 16:39:45;;;;;;;0.00;0.00;;;13.20;83.10;;;;;;6126547;23;20010;-88
2024/02/01 16:42:36;;;;;;;0.05;0.05;;;13.20;83.10;;;;;;6156911;23;20006;-87
2024/02/01 16:45:13;;;;;;;0.10;0.10;;;13.10;83.30;;;;;;6158762;23;20028;-87
2024/02/01 16:47:43;;;;;;;0.00;0.00;;;13.20;83.20;;;;;;6160576;23;20024;-87
2024/02/01 16:50:15;;;;;;;0.10;0.10;;;13.10;82.90;;;;;;6158302;23;20002;-87
2024/02/01 16:52:48;;;;;;;0.10;0.10;;;13.10;82.80;;;;;;6159750;23;20001;-87
2024/02/01 16:55:35;;;;;;;0.10;0.10;;;13.00;82.70;;;;;;6156816;23;20016;-87
2024/02/01 16:58:01;;;;;;;0.08;0.08;;;12.90;83.00;;;;;;6157433;23;20006;-87
2024/02/01 17:00:32;;;;;;;0.10;0.10;;;12.90;82.80;;;;;;6158423;23;20009;-88
2024/02/01 17:03:05;;;;;;;0.00;0.00;;;12.90;82.70;;;;;;6158452;23;20006;-87
2024/02/01 17:05:31;;;;;;;0.00;0.00;;;12.80;82.80;;;;;;6149455;23;20006;-88
2024/02/01 17:07:59;;;;;;;0.10;0.10;;;12.80;82.80;;;;;;6155661;23;20060;-87
2024/02/01 17:10:50;;;;;;;0.10;0.10;;;12.70;83.10;;;;;;6157670;23;20004;-87
2024/02/01 17:13:17;;;;;;;0.00;0.00;;;12.70;83.00;;;;;;6156673;23;20013;-87
2024/02/01 17:15:42;;;;;;;0.00;0.00;;;12.60;82.90;;;;;;6157469;23;20012;-86
2024/02/01 17:18:16;;;;;;;0.10;0.10;;;12.50;83.30;;;;;;6156393;23;20009;-88
2024/02/01 17:20:42;;;;;;;0.10;0.10;;;12.40;83.50;;;;;;6157013;23;20383;-89
2024/02/01 17:23:12;;;;;;;0.10;0.10;;;12.30;83.40;;;;;;6158671;23;20001;-88
2024/02/01 17:25:38;;;;;;;0.10;0.10;;;12.30;83.20;;;;;;6158758;23;20002;-87
2024/02/01 17:28:16;;;;;;;0.10;0.10;;;12.20;83.60;;;;;;6158240;23;19998;-87
2024/02/01 17:31:15;;;;;;;0.10;0.10;;;12.20;83.50;;;;;;6156482;23;20013;-87
2024/02/01 17:34:02;;;;;;;0.10;0.10;;;12.10;83.60;;;;;;6161881;23;20065;-87
2024/02/01 17:36:42;;;;;;;0.10;0.10;;;12.00;83.60;;;;;;6159850;23;20005;-87
2024/02/01 17:39:09;;;;;;;0.10;0.10;;;12.00;83.50;;;;;;6160368;23;20002;-88
2024/02/01 17:41:37;;;;;;;0.00;0.00;;;11.90;83.50;;;;;;6159226;23;20013;-88
2024/02/01 17:44:29;;;;;;;0.10;0.10;;;11.90;83.50;;;;;;6159206;23;20009;-88
2024/02/01 17:46:59;;;;;;;0.00;0.00;;;11.80;84.10;;;;;;6159287;23;20338;-80
2024/02/01 17:49:41;;;;;;;0.10;0.10;;;11.70;84.10;;;;;;6160035;23;20005;-80
2024/02/01 17:52:45;;;;;;;0.10;0.10;;;11.60;84.20;;;;;;6150420;23;20644;-79
2024/02/01 17:55:22;;;;;;;0.10;0.10;;;11.60;84.50;;;;;;6158956;23;20006;-78
2024/02/01 17:57:56;;;;;;;0.10;0.10;;;11.60;84.50;;;;;;6159590;23;20032;-76
2024/02/01 18:00:25;;;;;;;0.10;0.10;;;11.60;84.60;;;;;;6159388;23;20005;-77
2024/02/01 18:02:53;;;;;;;0.10;0.10;;;11.70;84.40;;;;;;6159122;23;20434;-74
2024/02/01 18:05:22;;;;;;;0.00;0.00;;;11.80;84.30;;;;;;6158588;23;20001;-75
2024/02/01 18:07:52;;;;;;;0.10;0.10;;;11.80;84.50;;;;;;6159502;23;20052;-80
2024/02/01 18:10:19;;;;;;;0.10;0.10;;;11.70;84.10;;;;;;6157364;23;20016;-77
2024/02/01 18:12:46;;;;;;;0.10;0.10;;;11.70;83.90;;;;;;6158187;23;19997;-77
2024/02/01 18:15:21;;;;;;;0.10;0.10;;;11.70;84.10;;;;;;6159419;23;20061;-73
2024/02/01 18:17:47;;;;;;;0.00;0.00;;;11.60;84.40;;;;;;6158887;23;20009;-74
2024/02/01 18:20:18;;;;;;;0.10;0.10;;;11.60;84.20;;;;;;6159865;23;20001;-73
2024/02/01 18:22:44;;;;;;;0.10;0.10;;;11.60;84.10;;;;;;6159131;23;20049;-73
2024/02/01 18:25:26;;;;;;;0.10;0.10;;;11.50;84.00;;;;;;6159859;23;20001;-73
2024/02/01 18:27:52;;;;;;;0.10;0.10;;;11.50;84.30;;;;;;6159325;23;20053;-73
2024/02/01 18:30:27;;;;;;;0.10;0.10;;;11.50;84.40;;;;;;6158450;23;20072;-74
2024/02/01 18:32:54;;;;;;;0.10;0.10;;;11.40;84.40;;;;;;6157729;23;20005;-75
2024/02/01 18:35:33;;;;;;;0.10;0.10;;;11.40;84.40;;;;;;6158279;23;20013;-74
2024/02/01 18:38:25;;;;;;;0.10;0.10;;;11.40;84.30;;;;;;6154795;23;20786;-73
2024/02/01 18:40:51;;;;;;;0.10;0.10;;;11.30;84.00;;;;;;6162035;23;20013;-73
2024/02/01 18:43:21;;;;;;;0.10;0.10;;;11.20;84.00;;;;;;6156768;23;20520;-73
2024/02/01 18:45:47;;;;;;;0.10;0.10;;;11.10;84.50;;;;;;6159598;23;20036;-74
2024/02/01 18:48:25;;;;;;;0.10;0.10;;;11.10;84.60;;;;;;6158634;23;20002;-72
2024/02/01 18:50:55;;;;;;;0.10;0.10;;;11.00;84.50;;;;;;6158856;23;20024;-73
2024/02/01 18:53:43;;;;;;;0.10;0.10;;;11.00;84.30;;;;;;6158337;23;20064;-73
2024/02/01 18:56:12;;;;;;;0.10;0.10;;;11.00;84.30;;;;;;6159297;23;20001;-73
2024/02/01 18:58:40;;;;;;;0.10;0.10;;;11.00;84.10;;;;;;6158571;23;20008;-75
2024/02/01 19:01:12;;;;;;;0.00;0.00;;;11.00;84.10;;;;;;6157636;23;20088;-74
2024/02/01 19:04:23;;;;;;;0.10;0.10;;;10.90;83.90;;;;;;6159102;23;20453;-74
2024/02/01 19:06:50;;;;;;;0.10;0.10;;;10.90;83.60;;;;;;6158366;23;20020;-75
2024/02/01 19:09:25;;;;;;;0.10;0.10;;;10.80;83.60;;;;;;6159065;23;20337;-74
2024/02/01 19:12:00;;;;;;;0.10;0.10;;;10.80;83.30;;;;;;6157630;23;20006;-74
2024/02/01 19:14:48;;;;;;;0.10;0.10;;;10.70;83.60;;;;;;6159364;23;20371;-75
2024/02/01 19:17:32;;;;;;;0.10;0.10;;;10.70;83.50;;;;;;6158612;23;20586;-75
2024/02/01 19:20:00;;;;;;;0.10;0.10;;;10.60;83.60;;;;;;6156663;23;20446;-78
2024/02/01 19:22:45;;;;;;;0.10;0.10;;;10.60;83.50;;;;;;6157291;23;20021;-77
2024/02/01 19:25:22;;;;;;;0.10;0.10;;;10.50;83.30;;;;;;6157718;23;20002;-77
2024/02/01 19:28:02;;;;;;;0.10;0.10;;;10.50;83.70;;;;;;6158524;23;20062;-77
2024/02/01 19:30:40;;;;;;;0.10;0.10;;;10.50;83.60;;;;;;6156961;23;20458;-76
2024/02/01 19:33:20;;;;;;;0.10;0.10;;;10.50;83.50;;;;;;6158141;23;20013;-78
2024/02/01 19:35:48;;;;;;;0.10;0.10;;;10.40;83.50;;;;;;6156206;23;20009;-74
2024/02/01 19:38:18;;;;;;;0.10;0.10;;;10.40;83.30;;;;;;6158606;23;20061;-75
2024/02/01 19:40:47;;;;;;;0.10;0.10;;;10.30;83.20;;;;;;6156917;23;20009;-76
2024/02/01 19:43:19;;;;;;;0.10;0.10;;;10.30;83.50;;;;;;6158007;23;20001;-75
2024/02/01 19:45:47;;;;;;;0.10;0.10;;;10.30;83.40;;;;;;6158546;23;20029;-80